createdAt,value
2017-07-11T00:00:09.388Z,28.03
2017-07-11T00:01:09.417Z,28.04
2017-07-11T00:02:09.130Z,28.12
2017-07-11T00:03:09.158Z,28.06
2017-07-11T00:04:09.799Z,28.11
2017-07-11T00:05:09.528Z,28.06
2017-07-11T00:06:09.569Z,28.07
2017-07-11T00:07:09.593Z,28.12
2017-07-11T00:08:09.298Z,28.06
2017-07-11T00:09:09.631Z,28.12
2017-07-11T00:10:09.365Z,28.09
2017-07-11T00:11:09.398Z,28.09
2017-07-11T00:12:09.747Z,28.04
2017-07-11T00:13:09.773Z,28.09
2017-07-11T00:14:10.105Z,28.04
2017-07-11T00:15:09.504Z,28.07
2017-07-11T00:16:09.217Z,28.12
2017-07-11T00:17:09.571Z,28.06
2017-07-11T00:18:09.918Z,28.06
2017-07-11T00:19:09.883Z,28.11
2017-07-11T00:20:09.659Z,28.06
2017-07-11T00:21:10.014Z,28.03
2017-07-11T00:22:09.402Z,28.06
2017-07-11T00:23:09.746Z,28.14
2017-07-11T00:24:10.390Z,28.04
2017-07-11T00:25:10.129Z,28.06
2017-07-11T00:26:09.517Z,28.06
2017-07-11T00:27:10.190Z,28.06
2017-07-11T00:28:10.219Z,28.07
2017-07-11T00:29:09.922Z,28.12
2017-07-11T00:30:09.633Z,28.11
2017-07-11T00:31:09.674Z,28.11
2017-07-11T00:32:10.338Z,28.11
2017-07-11T00:33:09.728Z,28.14
2017-07-11T00:34:10.072Z,28.07
2017-07-11T00:35:10.421Z,28.02
2017-07-11T00:36:10.125Z,28.06
2017-07-11T00:37:10.554Z,28.04
2017-07-11T00:38:10.511Z,28.06
2017-07-11T00:39:10.225Z,28.14
2017-07-11T00:40:10.258Z,28.04
2017-07-11T00:41:10.605Z,28.06
2017-07-11T00:42:10.307Z,28.03
2017-07-11T00:43:10.018Z,28.07
2017-07-11T00:44:10.688Z,28.03
2017-07-11T00:45:11.020Z,28.04
2017-07-11T00:46:10.753Z,28.07
2017-07-11T00:47:10.783Z,27.97
2017-07-11T00:48:10.480Z,28.04
2017-07-11T00:49:10.522Z,28.12
2017-07-11T00:50:11.114Z,28.06
2017-07-11T00:51:10.898Z,28.07
2017-07-11T00:52:10.594Z,28.09
2017-07-11T00:53:10.956Z,28.14
2017-07-11T00:54:10.991Z,28.07
2017-07-11T00:55:10.625Z,28.11
2017-07-11T00:56:11.046Z,28.11
2017-07-11T00:57:10.756Z,28.02
2017-07-11T00:58:10.462Z,28.03
2017-07-11T00:59:10.801Z,28.12
2017-07-11T01:00:11.418Z,28.03
2017-07-11T01:01:10.881Z,28.06
2017-07-11T01:02:10.899Z,28.12
2017-07-11T01:03:10.936Z,28.12
2017-07-11T01:04:11.289Z,28.04
2017-07-11T01:05:11.558Z,28.11
2017-07-11T01:06:10.702Z,28.03
2017-07-11T01:07:11.375Z,28.04
2017-07-11T01:08:11.401Z,28.11
2017-07-11T01:09:11.433Z,28.07
2017-07-11T01:10:11.702Z,28.06
2017-07-11T01:11:11.166Z,27.97
2017-07-11T01:12:11.200Z,28.07
2017-07-11T01:13:11.543Z,27.94
2017-07-11T01:14:11.586Z,28
2017-07-11T01:15:11.526Z,27.96
2017-07-11T01:16:10.995Z,27.96
2017-07-11T01:17:11.347Z,27.93
2017-07-11T01:18:11.381Z,27.93
2017-07-11T01:19:11.729Z,27.99
2017-07-11T01:20:11.734Z,27.99
2017-07-11T01:21:11.463Z,27.99
2017-07-11T01:22:11.858Z,28.02
2017-07-11T01:23:11.833Z,28.03
2017-07-11T01:24:11.558Z,28.06
2017-07-11T01:25:12.194Z,27.94
2017-07-11T01:26:11.630Z,28.06
2017-07-11T01:27:11.960Z,27.94
2017-07-11T01:28:11.347Z,27.97
2017-07-11T01:29:11.703Z,27.87
2017-07-11T01:30:11.710Z,27.92
2017-07-11T01:31:11.772Z,27.94
2017-07-11T01:32:11.811Z,27.97
2017-07-11T01:33:11.817Z,27.92
2017-07-11T01:34:11.850Z,27.92
2017-07-11T01:35:12.454Z,27.93
2017-07-11T01:36:12.232Z,27.92
2017-07-11T01:37:11.941Z,27.93
2017-07-11T01:38:11.961Z,27.94
2017-07-11T01:39:12.324Z,27.93
2017-07-11T01:40:12.646Z,27.82
2017-07-11T01:41:12.046Z,27.94
2017-07-11T01:42:12.405Z,27.93
2017-07-11T01:43:12.438Z,27.97
2017-07-11T01:44:11.825Z,27.93
2017-07-11T01:45:12.170Z,27.87
2017-07-11T01:46:12.520Z,27.92
2017-07-11T01:47:12.232Z,27.92
2017-07-11T01:48:12.585Z,27.96
2017-07-11T01:49:12.622Z,27.92
2017-07-11T01:50:12.315Z,27.92
2017-07-11T01:51:12.353Z,27.96
2017-07-11T01:52:12.717Z,27.99
2017-07-11T01:53:12.418Z,27.96
2017-07-11T01:54:12.758Z,27.9
2017-07-11T01:55:12.470Z,27.9
2017-07-11T01:56:12.820Z,27.96
2017-07-11T01:57:12.845Z,27.92
2017-07-11T01:58:12.885Z,27.9
2017-07-11T01:59:12.914Z,27.96
2017-07-11T02:00:12.620Z,27.9
2017-07-11T02:01:12.968Z,27.9
2017-07-11T02:02:12.681Z,27.93
2017-07-11T02:03:12.711Z,27.92
2017-07-11T02:04:13.055Z,27.92
2017-07-11T02:05:13.087Z,27.9
2017-07-11T02:06:13.126Z,27.88
2017-07-11T02:07:12.820Z,27.92
2017-07-11T02:08:12.858Z,27.94
2017-07-11T02:09:13.198Z,27.92
2017-07-11T02:10:13.244Z,27.92
2017-07-11T02:11:12.945Z,27.87
2017-07-11T02:12:12.977Z,27.88
2017-07-11T02:13:13.011Z,27.9
2017-07-11T02:14:13.353Z,27.93
2017-07-11T02:15:13.055Z,27.84
2017-07-11T02:16:13.096Z,27.87
2017-07-11T02:17:13.121Z,27.9
2017-07-11T02:18:13.151Z,27.9
2017-07-11T02:19:13.184Z,27.9
2017-07-11T02:20:13.530Z,27.94
2017-07-11T02:21:13.237Z,27.9
2017-07-11T02:22:13.585Z,27.92
2017-07-11T02:23:13.613Z,27.9
2017-07-11T02:24:13.011Z,27.96
2017-07-11T02:25:13.361Z,27.9
2017-07-11T02:26:13.696Z,27.88
2017-07-11T02:27:13.730Z,27.92
2017-07-11T02:28:13.754Z,27.9
2017-07-11T02:29:13.808Z,27.92
2017-07-11T02:30:13.819Z,27.79
2017-07-11T02:31:14.105Z,27.78
2017-07-11T02:32:13.565Z,27.9
2017-07-11T02:33:13.902Z,27.96
2017-07-11T02:34:13.617Z,27.92
2017-07-11T02:35:13.975Z,27.85
2017-07-11T02:36:13.977Z,27.82
2017-07-11T02:37:14.035Z,27.79
2017-07-11T02:38:14.054Z,27.77
2017-07-11T02:39:14.088Z,27.82
2017-07-11T02:40:13.800Z,27.84
2017-07-11T02:41:14.401Z,27.82
2017-07-11T02:42:13.862Z,27.84
2017-07-11T02:43:13.892Z,27.84
2017-07-11T02:44:14.236Z,27.84
2017-07-11T02:45:14.277Z,27.85
2017-07-11T02:46:14.275Z,27.81
2017-07-11T02:47:14.342Z,27.85
2017-07-11T02:48:13.711Z,27.84
2017-07-11T02:49:14.068Z,27.82
2017-07-11T02:50:14.416Z,27.87
2017-07-11T02:51:14.737Z,27.84
2017-07-11T02:52:14.478Z,27.85
2017-07-11T02:53:14.187Z,27.79
2017-07-11T02:54:14.211Z,27.74
2017-07-11T02:55:14.568Z,27.75
2017-07-11T02:56:14.837Z,27.84
2017-07-11T02:57:13.975Z,27.77
2017-07-11T02:58:14.638Z,27.78
2017-07-11T02:59:14.685Z,27.75
2017-07-11T03:00:14.709Z,27.79
2017-07-11T03:01:14.988Z,27.77
2017-07-11T03:02:14.443Z,27.74
2017-07-11T03:03:14.476Z,27.75
2017-07-11T03:04:14.829Z,27.77
2017-07-11T03:05:14.852Z,27.69
2017-07-11T03:06:14.862Z,27.7
2017-07-11T03:07:14.599Z,27.78
2017-07-11T03:08:14.620Z,27.75
2017-07-11T03:09:14.336Z,27.69
2017-07-11T03:10:15.002Z,27.67
2017-07-11T03:11:15.333Z,27.81
2017-07-11T03:12:14.747Z,27.66
2017-07-11T03:13:15.088Z,27.66
2017-07-11T03:14:15.128Z,27.69
2017-07-11T03:15:14.833Z,27.69
2017-07-11T03:16:15.183Z,27.69
2017-07-11T03:17:15.211Z,27.69
2017-07-11T03:18:15.232Z,27.72
2017-07-11T03:19:15.256Z,27.69
2017-07-11T03:20:14.986Z,27.72
2017-07-11T03:21:15.014Z,27.7
2017-07-11T03:22:15.034Z,27.75
2017-07-11T03:23:15.065Z,27.67
2017-07-11T03:24:15.089Z,27.7
2017-07-11T03:25:15.126Z,27.7
2017-07-11T03:26:15.158Z,27.63
2017-07-11T03:27:15.499Z,27.59
2017-07-11T03:28:15.532Z,27.69
2017-07-11T03:29:15.561Z,27.7
2017-07-11T03:30:14.953Z,27.69
2017-07-11T03:31:15.624Z,27.65
2017-07-11T03:32:15.652Z,27.69
2017-07-11T03:33:15.681Z,27.62
2017-07-11T03:34:15.383Z,27.66
2017-07-11T03:35:15.748Z,27.7
2017-07-11T03:36:15.758Z,27.7
2017-07-11T03:37:15.795Z,27.69
2017-07-11T03:38:15.825Z,27.7
2017-07-11T03:39:15.537Z,27.69
2017-07-11T03:40:15.566Z,27.69
2017-07-11T03:41:15.275Z,27.67
2017-07-11T03:42:15.876Z,27.66
2017-07-11T03:43:15.977Z,27.69
2017-07-11T03:44:15.682Z,27.69
2017-07-11T03:45:16.034Z,27.66
2017-07-11T03:46:16.067Z,27.69
2017-07-11T03:47:16.021Z,27.7
2017-07-11T03:48:16.113Z,27.69
2017-07-11T03:49:15.836Z,27.66
2017-07-11T03:50:16.170Z,27.69
2017-07-11T03:51:16.204Z,27.63
2017-07-11T03:52:16.216Z,27.66
2017-07-11T03:53:16.265Z,27.69
2017-07-11T03:54:15.962Z,27.67
2017-07-11T03:55:16.335Z,27.66
2017-07-11T03:56:16.347Z,27.66
2017-07-11T03:57:16.628Z,27.63
2017-07-11T03:58:16.412Z,27.7
2017-07-11T03:59:15.806Z,27.67
2017-07-11T04:00:16.478Z,27.66
2017-07-11T04:01:16.180Z,27.66
2017-07-11T04:02:16.145Z,27.67
2017-07-11T04:03:16.558Z,27.65
2017-07-11T04:04:16.273Z,27.6
2017-07-11T04:05:16.620Z,27.67
2017-07-11T04:06:16.319Z,27.66
2017-07-11T04:07:16.661Z,27.65
2017-07-11T04:08:16.706Z,27.63
2017-07-11T04:09:16.418Z,27.66
2017-07-11T04:10:16.767Z,27.69
2017-07-11T04:11:16.799Z,27.62
2017-07-11T04:12:16.750Z,27.65
2017-07-11T04:13:16.857Z,27.7
2017-07-11T04:14:16.890Z,27.69
2017-07-11T04:15:16.915Z,27.72
2017-07-11T04:16:16.940Z,27.67
2017-07-11T04:17:16.584Z,27.62
2017-07-11T04:18:17.005Z,27.7
2017-07-11T04:19:17.034Z,27.65
2017-07-11T04:20:16.735Z,27.63
2017-07-11T04:21:17.084Z,27.63
2017-07-11T04:22:17.409Z,27.75
2017-07-11T04:23:16.821Z,27.63
2017-07-11T04:24:17.187Z,27.6
2017-07-11T04:25:16.568Z,27.6
2017-07-11T04:26:17.256Z,27.69
2017-07-11T04:27:17.568Z,27.69
2017-07-11T04:28:17.294Z,27.63
2017-07-11T04:29:17.002Z,27.6
2017-07-11T04:30:17.352Z,27.67
2017-07-11T04:31:17.066Z,27.59
2017-07-11T04:32:17.663Z,27.7
2017-07-11T04:33:17.118Z,27.6
2017-07-11T04:34:17.155Z,27.6
2017-07-11T04:35:16.895Z,27.66
2017-07-11T04:36:17.528Z,27.57
2017-07-11T04:37:17.497Z,27.55
2017-07-11T04:38:17.590Z,27.57
2017-07-11T04:39:17.299Z,27.62
2017-07-11T04:40:17.012Z,27.54
2017-07-11T04:41:17.677Z,27.57
2017-07-11T04:42:17.944Z,27.55
2017-07-11T04:43:17.738Z,27.62
2017-07-11T04:44:17.771Z,27.55
2017-07-11T04:45:17.475Z,27.65
2017-07-11T04:46:17.173Z,27.57
2017-07-11T04:47:17.458Z,27.6
2017-07-11T04:48:17.882Z,27.62
2017-07-11T04:49:17.587Z,27.55
2017-07-11T04:50:17.936Z,27.62
2017-07-11T04:51:17.329Z,27.57
2017-07-11T04:52:17.962Z,27.6
2017-07-11T04:53:18.026Z,27.55
2017-07-11T04:54:18.059Z,27.6
2017-07-11T04:55:17.768Z,27.62
2017-07-11T04:56:18.113Z,27.57
2017-07-11T04:57:18.081Z,27.54
2017-07-11T04:58:17.850Z,27.63
2017-07-11T04:59:17.887Z,27.6
2017-07-11T05:00:18.237Z,27.65
2017-07-11T05:01:17.942Z,27.59
2017-07-11T05:02:18.543Z,27.63
2017-07-11T05:03:18.323Z,27.6
2017-07-11T05:04:18.023Z,27.54
2017-07-11T05:05:18.385Z,27.55
2017-07-11T05:06:18.088Z,27.54
2017-07-11T05:07:18.691Z,27.6
2017-07-11T05:08:18.462Z,27.63
2017-07-11T05:09:18.172Z,27.6
2017-07-11T05:10:18.581Z,27.57
2017-07-11T05:11:18.237Z,27.55
2017-07-11T05:12:18.881Z,27.63
2017-07-11T05:13:18.619Z,27.57
2017-07-11T05:14:18.698Z,27.59
2017-07-11T05:15:18.341Z,27.63
2017-07-11T05:16:18.370Z,27.59
2017-07-11T05:17:18.670Z,27.69
2017-07-11T05:18:18.759Z,27.57
2017-07-11T05:19:18.484Z,27.66
2017-07-11T05:20:18.824Z,27.62
2017-07-11T05:21:18.858Z,27.57
2017-07-11T05:22:18.849Z,27.69
2017-07-11T05:23:18.267Z,27.66
2017-07-11T05:24:18.612Z,27.66
2017-07-11T05:25:18.968Z,27.66
2017-07-11T05:26:18.997Z,27.65
2017-07-11T05:27:18.637Z,27.6
2017-07-11T05:28:19.063Z,27.6
2017-07-11T05:29:19.096Z,27.69
2017-07-11T05:30:19.107Z,27.65
2017-07-11T05:31:19.142Z,27.69
2017-07-11T05:32:19.471Z,27.69
2017-07-11T05:33:19.195Z,27.63
2017-07-11T05:34:19.228Z,27.65
2017-07-11T05:35:19.256Z,27.72
2017-07-11T05:36:19.302Z,27.63
2017-07-11T05:37:19.563Z,27.7
2017-07-11T05:38:19.356Z,27.74
2017-07-11T05:39:19.375Z,27.66
2017-07-11T05:40:19.089Z,27.67
2017-07-11T05:41:19.113Z,27.66
2017-07-11T05:42:19.718Z,27.72
2017-07-11T05:43:18.851Z,27.81
2017-07-11T05:44:19.205Z,27.69
2017-07-11T05:45:19.559Z,27.79
2017-07-11T05:46:19.266Z,27.67
2017-07-11T05:47:19.859Z,27.74
2017-07-11T05:48:19.649Z,27.72
2017-07-11T05:49:19.337Z,27.77
2017-07-11T05:50:19.378Z,27.75
2017-07-11T05:51:19.720Z,27.72
2017-07-11T05:52:20.063Z,27.77
2017-07-11T05:53:19.464Z,27.77
2017-07-11T05:54:19.810Z,27.81
2017-07-11T05:55:19.533Z,27.78
2017-07-11T05:56:19.872Z,27.77
2017-07-11T05:57:19.839Z,27.79
2017-07-11T05:58:19.937Z,27.79
2017-07-11T05:59:19.962Z,27.78
2017-07-11T06:00:19.679Z,27.74
2017-07-11T06:01:20.010Z,27.74
2017-07-11T06:02:19.992Z,27.81
2017-07-11T06:03:20.085Z,27.77
2017-07-11T06:04:20.113Z,27.77
2017-07-11T06:05:19.826Z,27.77
2017-07-11T06:06:20.172Z,27.74
2017-07-11T06:07:20.446Z,27.81
2017-07-11T06:08:19.914Z,27.75
2017-07-11T06:09:19.943Z,27.78
2017-07-11T06:10:20.291Z,27.81
2017-07-11T06:11:19.676Z,27.74
2017-07-11T06:12:20.032Z,27.79
2017-07-11T06:13:20.054Z,27.78
2017-07-11T06:14:19.770Z,27.75
2017-07-11T06:15:20.435Z,27.79
2017-07-11T06:16:20.473Z,27.81
2017-07-11T06:17:20.173Z,27.74
2017-07-11T06:18:20.526Z,27.78
2017-07-11T06:19:20.555Z,27.78
2017-07-11T06:20:20.575Z,27.82
2017-07-11T06:21:20.620Z,27.79
2017-07-11T06:22:20.637Z,27.79
2017-07-11T06:23:20.666Z,27.77
2017-07-11T06:24:20.699Z,27.82
2017-07-11T06:25:20.724Z,27.75
2017-07-11T06:26:20.761Z,27.74
2017-07-11T06:27:20.794Z,27.69
2017-07-11T06:28:20.182Z,27.78
2017-07-11T06:29:20.205Z,27.81
2017-07-11T06:30:20.552Z,27.75
2017-07-11T06:31:20.897Z,27.78
2017-07-11T06:32:20.930Z,27.75
2017-07-11T06:33:20.962Z,27.77
2017-07-11T06:34:20.999Z,27.85
2017-07-11T06:35:20.704Z,27.84
2017-07-11T06:36:20.725Z,27.75
2017-07-11T06:37:20.766Z,27.78
2017-07-11T06:38:21.402Z,27.85
2017-07-11T06:39:20.819Z,27.79
2017-07-11T06:40:20.853Z,27.84
2017-07-11T06:41:20.877Z,27.87
2017-07-11T06:42:21.230Z,27.82
2017-07-11T06:43:21.571Z,27.84
2017-07-11T06:44:20.971Z,27.88
2017-07-11T06:45:21.320Z,27.79
2017-07-11T06:46:21.029Z,27.82
2017-07-11T06:47:21.062Z,27.82
2017-07-11T06:48:21.667Z,27.82
2017-07-11T06:49:21.435Z,27.79
2017-07-11T06:50:21.148Z,27.81
2017-07-11T06:51:21.176Z,27.81
2017-07-11T06:52:21.522Z,27.81
2017-07-11T06:53:21.478Z,27.92
2017-07-11T06:54:21.261Z,27.94
2017-07-11T06:55:21.620Z,27.93
2017-07-11T06:56:20.993Z,27.92
2017-07-11T06:57:21.671Z,27.92
2017-07-11T06:58:21.955Z,27.92
2017-07-11T06:59:21.405Z,27.92
2017-07-11T07:00:21.761Z,27.92
2017-07-11T07:01:21.787Z,27.87
2017-07-11T07:02:21.178Z,27.9
2017-07-11T07:03:21.782Z,27.92
2017-07-11T07:04:21.567Z,27.85
2017-07-11T07:05:21.896Z,27.96
2017-07-11T07:06:21.933Z,27.85
2017-07-11T07:07:21.642Z,27.92
2017-07-11T07:08:22.305Z,27.88
2017-07-11T07:09:21.703Z,27.88
2017-07-11T07:10:21.744Z,27.92
2017-07-11T07:11:21.761Z,27.84
2017-07-11T07:12:22.115Z,27.82
2017-07-11T07:13:22.383Z,27.96
2017-07-11T07:14:22.172Z,27.96
2017-07-11T07:15:22.202Z,27.96
2017-07-11T07:16:22.226Z,27.97
2017-07-11T07:17:22.255Z,27.94
2017-07-11T07:18:22.272Z,27.99
2017-07-11T07:19:22.320Z,28
2017-07-11T07:20:22.026Z,28.02
2017-07-11T07:21:22.058Z,28.02
2017-07-11T07:22:22.083Z,28.11
2017-07-11T07:23:22.052Z,28.04
2017-07-11T07:24:22.140Z,28.06
2017-07-11T07:25:22.177Z,28.07
2017-07-11T07:26:22.529Z,28.07
2017-07-11T07:27:22.235Z,28.04
2017-07-11T07:28:22.563Z,28.02
2017-07-11T07:29:22.620Z,28.06
2017-07-11T07:30:22.645Z,28.12
2017-07-11T07:31:22.682Z,28.15
2017-07-11T07:32:22.387Z,28.09
2017-07-11T07:33:22.662Z,28.18
2017-07-11T07:34:22.744Z,28.12
2017-07-11T07:35:22.785Z,28.11
2017-07-11T07:36:22.498Z,28.09
2017-07-11T07:37:22.211Z,28.11
2017-07-11T07:38:22.863Z,28.17
2017-07-11T07:39:22.912Z,28.17
2017-07-11T07:40:22.622Z,28.14
2017-07-11T07:41:22.645Z,28.11
2017-07-11T07:42:22.682Z,28.07
2017-07-11T07:43:22.959Z,28.11
2017-07-11T07:44:23.053Z,28.09
2017-07-11T07:45:23.118Z,28.14
2017-07-11T07:46:23.120Z,28.15
2017-07-11T07:47:23.143Z,28.11
2017-07-11T07:48:23.428Z,28.14
2017-07-11T07:49:23.201Z,28.17
2017-07-11T07:50:22.917Z,28.18
2017-07-11T07:51:23.270Z,28.18
2017-07-11T07:52:23.304Z,28.17
2017-07-11T07:53:23.580Z,28.15
2017-07-11T07:54:23.359Z,28.17
2017-07-11T07:55:23.066Z,28.17
2017-07-11T07:56:23.411Z,28.21
2017-07-11T07:57:23.452Z,28.18
2017-07-11T07:58:23.165Z,28.22
2017-07-11T07:59:23.173Z,28.19
2017-07-11T08:00:23.530Z,28.19
2017-07-11T08:01:23.572Z,28.17
2017-07-11T08:02:23.604Z,28.19
2017-07-11T08:03:23.625Z,28.18
2017-07-11T08:04:23.649Z,28.22
2017-07-11T08:05:23.357Z,28.22
2017-07-11T08:06:23.712Z,28.19
2017-07-11T08:07:23.428Z,28.25
2017-07-11T08:08:23.452Z,28.19
2017-07-11T08:09:23.485Z,28.31
2017-07-11T08:10:23.822Z,28.29
2017-07-11T08:11:23.547Z,28.36
2017-07-11T08:12:23.564Z,28.37
2017-07-11T08:13:23.925Z,28.29
2017-07-11T08:14:23.626Z,28.34
2017-07-11T08:15:23.650Z,28.29
2017-07-11T08:16:23.366Z,28.39
2017-07-11T08:17:23.721Z,28.36
2017-07-11T08:18:23.752Z,28.37
2017-07-11T08:19:23.774Z,28.34
2017-07-11T08:20:24.127Z,28.33
2017-07-11T08:21:23.520Z,28.3
2017-07-11T08:22:23.860Z,28.41
2017-07-11T08:23:23.889Z,28.36
2017-07-11T08:24:23.926Z,28.37
2017-07-11T08:25:24.283Z,28.33
2017-07-11T08:26:23.979Z,28.39
2017-07-11T08:27:24.328Z,28.39
2017-07-11T08:28:24.353Z,28.33
2017-07-11T08:29:24.394Z,28.41
2017-07-11T08:30:23.786Z,28.39
2017-07-11T08:31:24.460Z,28.48
2017-07-11T08:32:24.497Z,28.49
2017-07-11T08:33:24.498Z,28.41
2017-07-11T08:34:24.230Z,28.46
2017-07-11T08:35:24.238Z,28.48
2017-07-11T08:36:23.978Z,28.41
2017-07-11T08:37:24.637Z,28.49
2017-07-11T08:38:24.021Z,28.51
2017-07-11T08:39:24.671Z,28.54
2017-07-11T08:40:24.404Z,28.51
2017-07-11T08:41:24.756Z,28.43
2017-07-11T08:42:24.787Z,28.54
2017-07-11T08:43:24.488Z,28.52
2017-07-11T08:44:25.091Z,28.51
2017-07-11T08:45:24.557Z,28.49
2017-07-11T08:46:24.569Z,28.51
2017-07-11T08:47:24.617Z,28.52
2017-07-11T08:48:24.649Z,28.49
2017-07-11T08:49:25.234Z,28.41
2017-07-11T08:50:25.019Z,28.49
2017-07-11T08:51:25.043Z,28.39
2017-07-11T08:52:24.756Z,28.49
2017-07-11T08:53:24.794Z,28.46
2017-07-11T08:54:25.058Z,28.41
2017-07-11T08:55:25.164Z,28.4
2017-07-11T08:56:25.197Z,28.55
2017-07-11T08:57:25.225Z,28.56
2017-07-11T08:58:24.613Z,28.43
2017-07-11T08:59:25.567Z,28.51
2017-07-11T09:00:25.307Z,28.54
2017-07-11T09:01:25.025Z,28.55
2017-07-11T09:02:25.385Z,28.52
2017-07-11T09:03:25.403Z,28.55
2017-07-11T09:04:25.735Z,28.46
2017-07-11T09:05:25.139Z,28.62
2017-07-11T09:06:25.176Z,28.66
2017-07-11T09:07:25.197Z,28.56
2017-07-11T09:08:25.558Z,28.61
2017-07-11T09:09:25.516Z,28.52
2017-07-11T09:10:25.608Z,28.59
2017-07-11T09:11:25.656Z,28.55
2017-07-11T09:12:25.665Z,28.61
2017-07-11T09:13:25.385Z,28.64
2017-07-11T09:14:25.664Z,28.56
2017-07-11T09:15:25.772Z,28.54
2017-07-11T09:16:25.477Z,28.61
2017-07-11T09:17:25.835Z,28.55
2017-07-11T09:18:25.538Z,28.66
2017-07-11T09:19:25.822Z,28.58
2017-07-11T09:20:25.919Z,28.55
2017-07-11T09:21:25.625Z,28.64
2017-07-11T09:22:25.961Z,28.54
2017-07-11T09:23:25.679Z,28.55
2017-07-11T09:24:26.335Z,28.64
2017-07-11T09:25:26.072Z,28.62
2017-07-11T09:26:26.097Z,28.62
2017-07-11T09:27:25.803Z,28.66
2017-07-11T09:28:25.515Z,28.64
2017-07-11T09:29:26.483Z,28.66
2017-07-11T09:30:26.217Z,28.66
2017-07-11T09:31:26.241Z,28.66
2017-07-11T09:32:26.273Z,28.67
2017-07-11T09:33:26.311Z,28.64
2017-07-11T09:34:26.635Z,28.7
2017-07-11T09:35:26.365Z,28.71
2017-07-11T09:36:26.070Z,28.73
2017-07-11T09:37:26.102Z,28.66
2017-07-11T09:38:26.139Z,28.7
2017-07-11T09:39:26.784Z,28.7
2017-07-11T09:40:26.509Z,28.73
2017-07-11T09:41:26.545Z,28.68
2017-07-11T09:42:26.551Z,28.67
2017-07-11T09:43:26.607Z,28.73
2017-07-11T09:44:26.878Z,28.68
2017-07-11T09:45:26.757Z,28.68
2017-07-11T09:46:26.370Z,28.76
2017-07-11T09:47:26.714Z,28.73
2017-07-11T09:48:26.439Z,28.67
2017-07-11T09:49:26.715Z,28.71
2017-07-11T09:50:26.172Z,28.7
2017-07-11T09:51:26.521Z,28.71
2017-07-11T09:52:26.869Z,28.71
2017-07-11T09:53:26.908Z,28.7
2017-07-11T09:54:26.917Z,28.71
2017-07-11T09:55:26.325Z,28.68
2017-07-11T09:56:26.674Z,28.71
2017-07-11T09:57:27.023Z,28.74
2017-07-11T09:58:27.056Z,28.71
2017-07-11T09:59:27.332Z,28.73
2017-07-11T10:00:27.117Z,28.7
2017-07-11T10:01:27.138Z,28.74
2017-07-11T10:02:26.533Z,28.74
2017-07-11T10:03:26.559Z,28.76
2017-07-11T10:04:26.919Z,28.76
2017-07-11T10:05:26.941Z,28.76
2017-07-11T10:06:26.983Z,28.78
2017-07-11T10:07:26.999Z,28.76
2017-07-11T10:08:27.360Z,28.76
2017-07-11T10:09:27.124Z,28.67
2017-07-11T10:10:27.414Z,28.68
2017-07-11T10:11:27.127Z,28.68
2017-07-11T10:12:27.151Z,28.7
2017-07-11T10:13:27.184Z,28.68
2017-07-11T10:14:27.212Z,28.7
2017-07-11T10:15:27.238Z,28.61
2017-07-11T10:16:27.599Z,28.62
2017-07-11T10:17:27.618Z,28.61
2017-07-11T10:18:27.016Z,28.67
2017-07-11T10:19:27.366Z,28.59
2017-07-11T10:20:27.394Z,28.62
2017-07-11T10:21:27.752Z,28.66
2017-07-11T10:22:27.767Z,28.66
2017-07-11T10:23:27.812Z,28.58
2017-07-11T10:24:27.841Z,28.66
2017-07-11T10:25:28.165Z,28.61
2017-07-11T10:26:27.566Z,28.66
2017-07-11T10:27:27.926Z,28.58
2017-07-11T10:28:27.951Z,28.68
2017-07-11T10:29:27.668Z,28.61
2017-07-11T10:30:27.946Z,28.62
2017-07-11T10:31:28.039Z,28.67
2017-07-11T10:32:28.073Z,28.66
2017-07-11T10:33:27.768Z,28.7
2017-07-11T10:34:28.130Z,28.67
2017-07-11T10:35:28.410Z,28.7
2017-07-11T10:36:27.874Z,28.73
2017-07-11T10:37:27.903Z,28.77
2017-07-11T10:38:28.257Z,28.74
2017-07-11T10:39:28.293Z,28.78
2017-07-11T10:40:28.559Z,28.83
2017-07-11T10:41:28.347Z,28.81
2017-07-11T10:42:28.369Z,28.89
2017-07-11T10:43:27.764Z,28.88
2017-07-11T10:44:28.110Z,28.92
2017-07-11T10:45:28.769Z,28.95
2017-07-11T10:46:28.179Z,28.9
2017-07-11T10:47:28.208Z,28.83
2017-07-11T10:48:28.231Z,29
2017-07-11T10:49:28.580Z,29.02
2017-07-11T10:50:28.549Z,29.02
2017-07-11T10:51:28.323Z,28.96
2017-07-11T10:52:28.675Z,28.98
2017-07-11T10:53:28.705Z,29.02
2017-07-11T10:54:28.729Z,29
2017-07-11T10:55:29.022Z,29
2017-07-11T10:56:28.471Z,28.98
2017-07-11T10:57:28.496Z,28.96
2017-07-11T10:58:28.844Z,29
2017-07-11T10:59:28.887Z,29.02
2017-07-11T11:00:29.166Z,29.04
2017-07-11T11:01:28.952Z,29.04
2017-07-11T11:02:28.971Z,29
2017-07-11T11:03:28.694Z,29.08
2017-07-11T11:04:29.038Z,29.06
2017-07-11T11:05:29.041Z,29.08
2017-07-11T11:06:28.450Z,29.08
2017-07-11T11:07:28.491Z,28.98
2017-07-11T11:08:28.524Z,29.02
2017-07-11T11:09:28.546Z,28.98
2017-07-11T11:10:29.464Z,29.05
2017-07-11T11:11:28.935Z,29.08
2017-07-11T11:12:28.964Z,29.09
2017-07-11T11:13:28.668Z,29.09
2017-07-11T11:14:29.016Z,29.14
2017-07-11T11:15:29.662Z,29.08
2017-07-11T11:16:29.400Z,29.18
2017-07-11T11:17:29.113Z,29.08
2017-07-11T11:18:29.470Z,29.15
2017-07-11T11:19:29.486Z,29.08
2017-07-11T11:20:29.766Z,29.18
2017-07-11T11:21:29.551Z,29.16
2017-07-11T11:22:29.587Z,29.23
2017-07-11T11:23:29.598Z,29.14
2017-07-11T11:24:29.334Z,29.16
2017-07-11T11:25:29.946Z,29.16
2017-07-11T11:26:29.712Z,29.26
2017-07-11T11:27:29.736Z,29.23
2017-07-11T11:28:29.759Z,29.19
2017-07-11T11:29:29.789Z,29.18
2017-07-11T11:30:30.079Z,29.23
2017-07-11T11:31:29.856Z,29.3
2017-07-11T11:32:29.891Z,29.21
2017-07-11T11:33:29.922Z,29.18
2017-07-11T11:34:29.622Z,29.3
2017-07-11T11:35:30.222Z,29.27
2017-07-11T11:36:30.008Z,29.26
2017-07-11T11:37:29.716Z,29.37
2017-07-11T11:38:29.758Z,29.3
2017-07-11T11:39:29.783Z,29.34
2017-07-11T11:40:30.107Z,29.42
2017-07-11T11:41:29.835Z,29.42
2017-07-11T11:42:30.193Z,29.58
2017-07-11T11:43:29.902Z,29.65
2017-07-11T11:44:30.247Z,29.61
2017-07-11T11:45:30.530Z,29.74
2017-07-11T11:46:30.319Z,29.76
2017-07-11T11:47:30.345Z,29.89
2017-07-11T11:48:30.369Z,30.01
2017-07-11T11:49:30.390Z,30.02
2017-07-11T11:50:29.799Z,30.08
2017-07-11T11:51:30.461Z,30.23
2017-07-11T11:52:30.497Z,30.22
2017-07-11T11:53:29.890Z,30.34
2017-07-11T11:54:30.556Z,30.31
2017-07-11T11:55:29.952Z,30.39
2017-07-11T11:56:30.622Z,30.37
2017-07-11T11:57:30.649Z,30.42
2017-07-11T11:58:30.682Z,30.43
2017-07-11T11:59:30.718Z,30.39
2017-07-11T12:00:30.752Z,30.45
2017-07-11T12:01:30.776Z,30.37
2017-07-11T12:02:30.496Z,30.37
2017-07-11T12:03:30.833Z,30.37
2017-07-11T12:04:30.555Z,30.37
2017-07-11T12:05:30.901Z,30.53
2017-07-11T12:06:30.621Z,30.47
2017-07-11T12:07:30.962Z,30.53
2017-07-11T12:08:30.679Z,30.54
2017-07-11T12:09:30.383Z,30.54
2017-07-11T12:10:30.735Z,30.55
2017-07-11T12:11:30.768Z,30.51
2017-07-11T12:12:31.122Z,30.62
2017-07-11T12:13:31.147Z,30.54
2017-07-11T12:14:31.183Z,30.54
2017-07-11T12:15:30.896Z,30.57
2017-07-11T12:16:30.920Z,30.55
2017-07-11T12:17:30.963Z,30.51
2017-07-11T12:18:30.994Z,30.62
2017-07-11T12:19:31.329Z,30.46
2017-07-11T12:20:31.047Z,30.39
2017-07-11T12:21:30.769Z,30.49
2017-07-11T12:22:31.109Z,30.43
2017-07-11T12:23:31.459Z,30.45
2017-07-11T12:24:31.171Z,30.45
2017-07-11T12:25:31.208Z,30.38
2017-07-11T12:26:31.553Z,30.37
2017-07-11T12:27:31.589Z,30.42
2017-07-11T12:28:31.299Z,30.38
2017-07-11T12:29:31.644Z,30.42
2017-07-11T12:30:31.364Z,30.38
2017-07-11T12:31:31.708Z,30.37
2017-07-11T12:32:31.737Z,30.34
2017-07-11T12:33:31.459Z,30.24
2017-07-11T12:34:31.809Z,30.37
2017-07-11T12:35:31.213Z,30.31
2017-07-11T12:36:31.878Z,30.32
2017-07-11T12:37:31.590Z,30.38
2017-07-11T12:38:31.931Z,30.47
2017-07-11T12:39:31.959Z,30.49
2017-07-11T12:40:31.676Z,30.54
2017-07-11T12:41:31.904Z,30.75
2017-07-11T12:42:31.739Z,30.8
2017-07-11T12:43:31.772Z,30.88
2017-07-11T12:44:31.791Z,30.92
2017-07-11T12:45:31.835Z,30.95
2017-07-11T12:46:31.543Z,31.06
2017-07-11T12:47:32.230Z,31.12
2017-07-11T12:48:31.979Z,31.06
2017-07-11T12:49:31.672Z,31.16
2017-07-11T12:50:31.993Z,31.1
2017-07-11T12:51:32.341Z,31.1
2017-07-11T12:52:32.051Z,31.07
2017-07-11T12:53:32.407Z,31.06
2017-07-11T12:54:31.805Z,31.04
2017-07-11T12:55:32.155Z,31.04